createdAt,value
2023-05-24T00:00:46.762Z,98934.50
2023-05-24T00:03:26.376Z,98938.09
2023-05-24T00:05:53.597Z,98933.00
2023-05-24T00:08:20.927Z,98925.94
2023-05-24T00:10:48.642Z,98927.34
2023-05-24T00:13:15.887Z,98928.22
2023-05-24T00:15:43.187Z,98933.13
2023-05-24T00:18:10.594Z,98933.72
2023-05-24T00:20:37.771Z,98939.72
2023-05-24T00:23:05.236Z,98927.28
2023-05-24T00:25:32.420Z,98927.84
2023-05-24T00:27:59.693Z,98935.47
2023-05-24T00:30:27.049Z,98941.47
2023-05-24T00:32:56.053Z,98931.22
2023-05-24T00:35:23.638Z,98929.63
2023-05-24T00:37:50.799Z,98930.19
2023-05-24T00:40:18.077Z,98928.56
2023-05-24T00:42:45.464Z,98928.06
2023-05-24T00:45:12.738Z,98927.56
2023-05-24T00:47:42.189Z,98924.59
2023-05-24T00:50:17.017Z,98922.19
2023-05-24T00:52:45.203Z,98932.53
2023-05-24T00:55:12.655Z,98929.31
2023-05-24T00:57:41.021Z,98940.16
2023-05-24T01:00:11.408Z,98932.56
2023-05-24T01:02:39.024Z,98930.44
2023-05-24T01:05:07.054Z,98931.31
2023-05-24T01:07:59.444Z,98933.78
2023-05-24T01:10:52.257Z,98932.19
2023-05-24T01:14:07.571Z,98934.13
2023-05-24T01:16:51.648Z,98927.09
2023-05-24T01:19:49.711Z,98935.00
2023-05-24T01:22:54.011Z,98934.50
2023-05-24T01:25:45.328Z,98938.03
2023-05-24T01:28:13.319Z,98947.28
2023-05-24T01:30:42.651Z,98934.03
2023-05-24T01:33:10.758Z,98947.03
2023-05-24T01:35:42.196Z,98941.63
2023-05-24T01:38:14.367Z,98936.00
2023-05-24T01:40:43.050Z,98945.72
2023-05-24T01:43:40.067Z,98948.22
2023-05-24T01:46:29.611Z,98946.59
2023-05-24T01:49:27.189Z,98944.19
2023-05-24T01:52:12.880Z,98943.94
2023-05-24T01:54:50.343Z,98940.72
2023-05-24T01:57:21.342Z,98957.53
2023-05-24T01:59:50.407Z,98947.00
2023-05-24T02:02:18.656Z,98950.78
2023-05-24T02:04:46.977Z,98953.28
2023-05-24T02:07:14.245Z,98951.66
2023-05-24T02:09:41.240Z,98953.84
2023-05-24T02:12:09.512Z,98949.81
2023-05-24T02:14:37.897Z,98953.59
2023-05-24T02:17:06.030Z,98953.06
2023-05-24T02:19:34.640Z,98951.75
2023-05-24T02:22:01.845Z,98951.22
2023-05-24T02:24:30.651Z,98952.34
2023-05-24T02:26:57.806Z,98951.78
2023-05-24T02:29:25.472Z,98955.88
2023-05-24T02:31:56.427Z,98953.16
2023-05-24T02:34:24.933Z,98946.97
2023-05-24T02:37:30.214Z,98951.31
2023-05-24T02:46:06.812Z,98949.78
2023-05-24T02:48:33.887Z,98955.19
2023-05-24T02:51:03.663Z,98957.34
2023-05-24T02:53:31.736Z,98951.16
2023-05-24T02:56:00.522Z,98953.31
2023-05-24T02:58:31.060Z,98962.19
2023-05-24T03:00:58.524Z,98961.69
2023-05-24T03:03:25.791Z,98959.53
2023-05-24T03:05:53.167Z,98957.66
2023-05-24T03:08:20.232Z,98957.44
2023-05-24T03:10:48.342Z,98965.53
2023-05-24T03:13:15.596Z,98967.44
2023-05-24T03:15:42.932Z,98963.91
2023-05-24T03:18:10.324Z,98967.69
2023-05-24T03:20:40.830Z,98972.03
2023-05-24T03:23:09.716Z,98975.28
2023-05-24T03:25:37.473Z,98976.41
2023-05-24T03:28:04.833Z,98969.38
2023-05-24T03:30:33.789Z,98976.16
2023-05-24T03:33:01.327Z,98980.75
2023-05-24T03:35:28.990Z,98988.34
2023-05-24T03:37:56.852Z,98984.06
2023-05-24T03:40:25.790Z,98990.28
2023-05-24T03:42:56.323Z,98989.22
2023-05-24T03:45:40.058Z,98998.41
2023-05-24T03:48:07.547Z,98994.38
2023-05-24T03:50:35.705Z,99000.03
2023-05-24T03:53:02.941Z,98997.06
2023-05-24T03:55:30.503Z,99005.72
2023-05-24T03:57:57.829Z,99009.50
2023-05-24T04:00:25.176Z,99014.13
2023-05-24T04:02:53.132Z,99012.78
2023-05-24T04:05:21.710Z,99016.63
2023-05-24T04:08:40.544Z,99020.69
2023-05-24T04:11:09.877Z,99023.66
2023-05-24T04:23:35.573Z,99044.81
2023-05-24T04:27:48.716Z,99043.44
2023-05-24T04:30:18.341Z,99059.66
2023-05-24T04:32:45.413Z,99062.88
2023-05-24T04:35:14.203Z,99064.84
2023-05-24T04:42:03.634Z,99070.25
2023-05-24T04:44:30.848Z,99069.44
2023-05-24T04:46:58.762Z,99073.47
2023-05-24T04:49:31.854Z,99074.53
2023-05-24T04:53:51.957Z,99082.13
2023-05-24T04:56:21.036Z,99087.56
2023-05-24T04:58:48.161Z,99088.09
2023-05-24T05:01:15.875Z,99080.28
2023-05-24T05:03:45.056Z,99077.81
2023-05-24T05:07:55.620Z,99092.47
2023-05-24T05:11:21.416Z,99096.22
2023-05-24T05:24:31.784Z,99109.50
2023-05-24T05:26:59.461Z,99111.38
2023-05-24T05:29:26.393Z,99117.31
2023-05-24T05:31:53.974Z,99114.59
2023-05-24T05:34:21.313Z,99117.84
2023-05-24T05:36:48.874Z,99115.13
2023-05-24T05:39:15.841Z,99118.09
2023-05-24T05:41:46.013Z,99119.44
2023-05-24T05:44:14.043Z,99118.91
2023-05-24T05:46:43.833Z,99128.63
2023-05-24T05:49:11.347Z,99127.53
2023-05-24T05:51:39.109Z,99121.31
2023-05-24T05:54:06.474Z,99127.53
2023-05-24T05:56:33.893Z,99132.94
2023-05-24T05:59:01.061Z,99139.44
2023-05-24T06:01:29.419Z,99135.13
2023-05-24T06:03:56.634Z,99138.91
2023-05-24T06:06:23.869Z,99137.25
2023-05-24T06:08:50.855Z,99143.22
2023-05-24T06:11:18.154Z,99140.53
2023-05-24T06:13:45.245Z,99150.78
2023-05-24T06:16:12.588Z,99158.66
2023-05-24T06:18:47.390Z,99155.94
2023-05-24T06:21:21.676Z,99164.06
2023-05-24T06:23:49.185Z,99156.78
2023-05-24T06:26:16.474Z,99163.25
2023-05-24T06:28:43.356Z,99164.88
2023-05-24T06:31:10.783Z,99168.66
2023-05-24T06:33:38.253Z,99178.41
2023-05-24T06:36:05.948Z,99178.66
2023-05-24T06:38:33.046Z,99175.69
2023-05-24T06:41:00.253Z,99178.13
2023-05-24T06:43:28.208Z,99184.34
2023-05-24T06:45:56.467Z,99184.34
2023-05-24T06:48:23.497Z,99188.13
2023-05-24T06:50:51.525Z,99198.66
2023-05-24T06:53:18.650Z,99207.56
2023-05-24T06:55:46.046Z,99205.97
2023-05-24T06:58:16.126Z,99206.50
2023-05-24T07:01:09.105Z,99214.66
2023-05-24T07:03:37.215Z,99221.69
2023-05-24T07:06:57.706Z,99223.03
2023-05-24T07:09:24.774Z,99235.22
2023-05-24T07:11:53.640Z,99234.16
2023-05-24T07:14:23.046Z,99239.53
2023-05-24T07:16:50.363Z,99239.00
2023-05-24T07:19:17.473Z,99243.81
2023-05-24T07:21:45.321Z,99245.19
2023-05-24T07:24:14.089Z,99252.47
2023-05-24T07:26:43.453Z,99252.72
2023-05-24T07:29:13.188Z,99263.25
2023-05-24T07:31:42.979Z,99265.38
2023-05-24T07:34:10.051Z,99277.22
2023-05-24T07:36:37.261Z,99284.25
2023-05-24T07:39:06.215Z,99278.81
2023-05-24T07:41:34.054Z,99276.13
2023-05-24T07:44:00.973Z,99283.44
2023-05-24T07:46:33.460Z,99288.56
2023-05-24T07:49:32.914Z,99293.97
2023-05-24T07:52:00.307Z,99299.91
2023-05-24T07:54:29.137Z,99309.34
2023-05-24T07:56:57.388Z,99305.84
2023-05-24T07:59:24.439Z,99318.78
2023-05-24T08:01:52.403Z,99312.28
2023-05-24T08:04:19.585Z,99319.53
2023-05-24T08:06:47.028Z,99320.31
2023-05-24T08:09:14.117Z,99317.09
2023-05-24T08:11:41.831Z,99326.50
2023-05-24T08:14:08.866Z,99327.81
2023-05-24T08:16:36.463Z,99333.47
2023-05-24T08:19:03.981Z,99328.88
2023-05-24T08:21:31.951Z,99339.16
2023-05-24T08:24:00.037Z,99342.06
2023-05-24T08:26:28.448Z,99343.97
2023-05-24T08:28:55.770Z,99346.16
2023-05-24T08:31:23.302Z,99350.47
2023-05-24T08:33:51.294Z,99356.47
2023-05-24T08:36:18.811Z,99353.81
2023-05-24T08:38:45.937Z,99360.53
2023-05-24T08:41:13.359Z,99360.69
2023-05-24T08:43:43.174Z,99365.56
2023-05-24T08:46:12.539Z,99381.66
2023-05-24T08:48:47.133Z,99385.94
2023-05-24T08:51:16.616Z,99381.66
2023-05-24T08:53:49.170Z,99382.19
2023-05-24T08:56:19.049Z,99384.66
2023-05-24T08:58:47.140Z,99393.03
2023-05-24T09:01:17.018Z,99397.31
2023-05-24T09:03:47.083Z,99398.09
2023-05-24T09:06:18.802Z,99409.16
2023-05-24T09:08:46.523Z,99406.50
2023-05-24T09:11:16.334Z,99408.09
2023-05-24T09:13:46.027Z,99409.75
2023-05-24T09:16:15.144Z,99413.50
2023-05-24T09:18:42.836Z,99423.16
2023-05-24T09:21:12.062Z,99420.13
2023-05-24T09:23:41.128Z,99437.69
2023-05-24T09:26:10.088Z,99434.94
2023-05-24T09:28:38.596Z,99430.28
2023-05-24T09:31:08.040Z,99437.75
2023-05-24T09:33:36.115Z,99433.03
2023-05-24T09:36:06.607Z,99440.81
2023-05-24T09:38:33.620Z,99446.38
2023-05-24T09:41:06.850Z,99450.19
2023-05-24T09:43:47.347Z,99452.38
2023-05-24T09:46:21.685Z,99452.97
2023-05-24T09:49:06.875Z,99460.03
2023-05-24T09:51:38.365Z,99456.00
2023-05-24T09:54:06.470Z,99457.94
2023-05-24T09:56:34.993Z,99460.69
2023-05-24T09:59:08.532Z,99451.53
2023-05-24T10:01:36.313Z,99457.94
2023-05-24T10:04:09.403Z,99455.50
2023-05-24T10:06:38.833Z,99460.59
2023-05-24T10:09:07.693Z,99463.03
2023-05-24T10:11:39.910Z,99453.09
2023-05-24T10:14:09.441Z,99462.22
2023-05-24T10:16:40.313Z,99460.03
2023-05-24T10:19:07.461Z,99465.97
2023-05-24T10:21:40.944Z,99468.72
2023-05-24T10:24:11.254Z,99458.53
2023-05-24T10:26:42.435Z,99464.47
2023-05-24T10:29:24.470Z,99465.06
2023-05-24T10:31:53.936Z,99476.13
2023-05-24T10:34:21.876Z,99472.66
2023-05-24T10:36:50.384Z,99475.13
2023-05-24T10:39:22.609Z,99478.13
2023-05-24T10:41:49.963Z,99484.06
2023-05-24T10:44:21.093Z,99483.03
2023-05-24T10:47:10.013Z,99481.69
2023-05-24T10:49:39.765Z,99483.63
2023-05-24T10:52:10.614Z,99486.91
2023-05-24T10:54:39.898Z,99492.38
2023-05-24T10:57:10.165Z,99491.91
2023-05-24T10:59:39.287Z,99491.66
2023-05-24T11:02:13.538Z,99494.09
2023-05-24T11:04:46.183Z,99496.25
2023-05-24T11:07:19.311Z,99501.53
2023-05-24T11:09:52.968Z,99500.47
2023-05-24T11:12:20.822Z,99494.59
2023-05-24T11:14:51.287Z,99503.84
2023-05-24T11:17:24.011Z,99498.47
2023-05-24T11:19:54.094Z,99501.16
2023-05-24T11:22:25.876Z,99499.03
2023-05-24T11:24:53.734Z,99500.06
2023-05-24T11:27:21.894Z,99490.91
2023-05-24T11:29:49.361Z,99500.06
2023-05-24T11:32:20.768Z,99500.06
2023-05-24T11:34:48.901Z,99501.47
2023-05-24T11:37:18.291Z,99502.88
2023-05-24T11:39:54.202Z,99509.38
2023-05-24T11:42:23.693Z,99510.19
2023-05-24T11:44:53.428Z,99504.56
2023-05-24T11:47:22.463Z,99511.06
2023-05-24T11:49:53.003Z,99515.44
2023-05-24T11:52:20.768Z,99511.94
2023-05-24T11:54:49.684Z,99518.38
2023-05-24T11:57:27.022Z,99514.31
2023-05-24T11:59:54.035Z,99520.78
2023-05-24T12:02:23.559Z,99514.91
2023-05-24T12:04:50.889Z,99506.81
2023-05-24T12:07:18.128Z,99512.28
2023-05-24T12:09:45.392Z,99516.84
2023-05-24T12:12:12.937Z,99526.78
2023-05-24T12:15:33.482Z,99520.38
2023-05-24T12:18:26.978Z,99519.91
2023-05-24T12:20:54.801Z,99523.72
2023-05-24T12:23:29.684Z,99524.16
2023-05-24T12:26:02.420Z,99525.00
2023-05-24T12:28:39.815Z,99523.66
2023-05-24T12:31:17.823Z,99519.34
2023-05-24T12:33:48.085Z,99522.63
2023-05-24T12:36:15.029Z,99526.44
2023-05-24T12:38:42.336Z,99524.09
2023-05-24T12:41:13.371Z,99517.34
2023-05-24T12:43:44.338Z,99514.94
2023-05-24T12:46:11.800Z,99518.13
2023-05-24T12:48:39.390Z,99511.06
2023-05-24T12:51:08.146Z,99507.03
2023-05-24T12:53:36.618Z,99515.97
2023-05-24T12:56:03.872Z,99510.84
2023-05-24T12:58:31.484Z,99515.19
2023-05-24T13:00:58.742Z,99514.63
2023-05-24T13:03:25.940Z,99519.44
2023-05-24T13:05:53.170Z,99513.53
2023-05-24T13:08:20.861Z,99518.94
2023-05-24T13:10:49.392Z,99514.66
2023-05-24T13:13:16.890Z,99516.56
2023-05-24T13:15:44.662Z,99511.97
2023-05-24T13:18:13.165Z,99510.38
2023-05-24T13:20:40.691Z,99506.31
2023-05-24T13:23:08.287Z,99503.31
2023-05-24T13:26:01.651Z,99508.22
2023-05-24T13:28:31.377Z,99513.06
2023-05-24T13:30:58.668Z,99508.78
2023-05-24T13:33:26.454Z,99510.41
2023-05-24T13:35:54.654Z,99509.03
2023-05-24T13:38:22.310Z,99506.59
2023-05-24T13:40:50.149Z,99507.13
2023-05-24T13:43:17.679Z,99501.97
2023-05-24T13:45:45.612Z,99506.03
2023-05-24T13:48:13.164Z,99511.44
2023-05-24T13:50:40.635Z,99499.59
2023-05-24T13:53:08.036Z,99505.25
2023-05-24T13:55:37.686Z,99506.06
2023-05-24T13:58:05.961Z,99505.53
2023-05-24T14:00:34.197Z,99509.03
2023-05-24T14:03:03.483Z,99512.53
2023-05-24T14:05:31.281Z,99512.53
2023-05-24T14:08:06.063Z,99510.91
2023-05-24T14:10:36.851Z,99513.84
2023-05-24T14:15:37.925Z,99514.66
2023-05-24T14:18:08.446Z,99512.50
2023-05-24T14:20:37.765Z,99512.50
2023-05-24T14:23:07.521Z,99507.13
2023-05-24T14:25:34.826Z,99506.06
2023-05-24T14:28:03.840Z,99510.94
2023-05-24T14:30:35.961Z,99499.03
2023-05-24T14:33:03.769Z,99500.94
2023-05-24T14:35:33.264Z,99493.63
2023-05-24T14:38:00.707Z,99496.06
2023-05-24T14:40:29.248Z,99495.25
2023-05-24T14:42:56.806Z,99506.63
2023-05-24T14:45:24.416Z,99505.56
2023-05-24T14:47:52.139Z,99505.81
2023-05-24T14:50:19.439Z,99509.63
2023-05-24T14:52:46.881Z,99518.81
2023-05-24T14:55:14.943Z,99508.25
2023-05-24T14:57:42.504Z,99510.13
2023-05-24T15:00:11.467Z,99510.66
2023-05-24T15:02:39.025Z,99517.44
2023-05-24T15:05:07.055Z,99519.34
2023-05-24T15:07:34.405Z,99525.03
2023-05-24T15:10:02.512Z,99525.06
2023-05-24T15:12:30.780Z,99516.38
2023-05-24T15:14:57.890Z,99515.84
2023-05-24T15:17:25.414Z,99516.97
2023-05-24T15:19:53.730Z,99509.09
2023-05-24T15:22:21.343Z,99515.84
2023-05-24T15:24:48.526Z,99514.25
2023-05-24T15:27:16.402Z,99507.19
2023-05-24T15:29:45.324Z,99507.72
2023-05-24T15:32:13.153Z,99519.09
2023-05-24T15:34:40.412Z,99509.38
2023-05-24T15:37:07.862Z,99514.25
2023-05-24T15:39:36.131Z,99523.44
2023-05-24T15:42:05.982Z,99519.66
2023-05-24T15:44:33.067Z,99528.31
2023-05-24T15:47:00.874Z,99528.84
2023-05-24T15:49:31.604Z,99523.72
2023-05-24T15:52:04.258Z,99525.59
2023-05-24T15:54:33.761Z,99522.88
2023-05-24T15:57:01.862Z,99529.66
2023-05-24T15:59:31.516Z,99531.53
2023-05-24T16:01:59.223Z,99534.53
2023-05-24T16:04:26.298Z,99539.94
2023-05-24T16:06:53.457Z,99542.88
2023-05-24T16:09:20.721Z,99545.06
2023-05-24T16:11:48.912Z,99545.56
2023-05-24T16:14:16.849Z,99542.34
2023-05-24T16:16:44.700Z,99549.38
2023-05-24T16:19:12.084Z,99547.47
2023-05-24T16:21:39.567Z,99550.97
2023-05-24T16:24:06.857Z,99555.81
2023-05-24T16:26:35.294Z,99554.75
2023-05-24T16:29:03.912Z,99558.53
2023-05-24T16:31:32.027Z,99563.91
2023-05-24T16:34:00.967Z,99562.53
2023-05-24T16:36:28.664Z,99559.06
2023-05-24T16:38:55.863Z,99572.00
2023-05-24T16:41:23.402Z,99573.91
2023-05-24T16:43:50.746Z,99576.31
2023-05-24T16:46:18.959Z,99577.38
2023-05-24T16:48:46.306Z,99580.34
2023-05-24T16:51:13.979Z,99581.69
2023-05-24T16:53:41.190Z,99580.59
2023-05-24T16:56:08.782Z,99588.16
2023-05-24T16:58:37.252Z,99592.44
2023-05-24T17:01:04.643Z,99595.09
2023-05-24T17:03:34.070Z,99595.09
2023-05-24T17:07:14.869Z,99585.34
2023-05-24T17:09:43.881Z,99592.91
2023-05-24T17:12:20.088Z,99595.63
2023-05-24T17:14:52.280Z,99591.78
2023-05-24T17:17:22.093Z,99596.09
2023-05-24T17:19:49.731Z,99589.56
2023-05-24T17:22:17.481Z,99588.47
2023-05-24T17:24:46.429Z,99598.19
2023-05-24T17:27:13.668Z,99594.94
2023-05-24T17:29:44.577Z,99599.22
2023-05-24T17:32:35.934Z,99602.41
2023-05-24T17:35:11.956Z,99614.53
2023-05-24T17:37:43.099Z,99621.75
2023-05-24T17:40:27.560Z,99623.34
2023-05-24T17:43:06.303Z,99623.88
2023-05-24T17:45:34.481Z,99624.38
2023-05-24T17:48:02.398Z,99626.03
2023-05-24T17:50:31.410Z,99624.38
2023-05-24T17:52:59.689Z,99624.88
2023-05-24T17:55:27.252Z,99632.44
2023-05-24T17:57:54.857Z,99633.25
2023-05-24T18:00:23.344Z,99636.19
2023-05-24T18:02:50.694Z,99633.44
2023-05-24T18:05:19.542Z,99639.44
2023-05-24T18:07:46.592Z,99642.13
2023-05-24T18:10:13.862Z,99640.47
2023-05-24T18:12:41.557Z,99648.03
2023-05-24T18:15:09.872Z,99643.69
2023-05-24T18:17:39.684Z,99648.53
2023-05-24T18:20:08.841Z,99656.06
2023-05-24T18:22:35.841Z,99652.00
2023-05-24T18:25:03.390Z,99659.28
2023-05-24T18:27:31.218Z,99656.84
2023-05-24T18:29:59.530Z,99659.22
2023-05-24T18:32:27.145Z,99657.03
2023-05-24T18:34:56.824Z,99656.47
2023-05-24T18:37:23.954Z,99666.13
2023-05-24T18:39:51.570Z,99661.75
2023-05-24T18:42:19.182Z,99670.09
2023-05-24T18:44:46.756Z,99678.94
2023-05-24T18:47:14.007Z,99680.56
2023-05-24T18:49:42.427Z,99685.16
2023-05-24T18:52:25.019Z,99697.28
2023-05-24T18:55:20.096Z,99697.28
2023-05-24T18:57:51.689Z,99708.06
2023-05-24T19:00:22.881Z,99709.38
2023-05-24T19:02:51.424Z,99712.31
2023-05-24T19:05:20.582Z,99715.00
2023-05-24T19:07:47.764Z,99716.09
2023-05-24T19:10:15.418Z,99717.97
2023-05-24T19:12:42.512Z,99715.78
2023-05-24T19:15:13.156Z,99723.03
2023-05-24T19:17:41.888Z,99731.41
2023-05-24T19:20:26.208Z,99726.28
2023-05-24T19:22:53.409Z,99724.88
2023-05-24T19:25:21.286Z,99723.50
2023-05-24T19:27:59.034Z,99726.19
2023-05-24T19:30:27.991Z,99728.91
2023-05-24T19:32:55.325Z,99734.78
2023-05-24T19:35:23.716Z,99731.53
2023-05-24T19:37:52.140Z,99733.97
2023-05-24T19:40:20.650Z,99733.16
2023-05-24T19:42:47.910Z,99729.63
2023-05-24T19:45:16.292Z,99728.25
2023-05-24T19:47:47.498Z,99723.38
2023-05-24T19:50:17.805Z,99719.31
2023-05-24T19:52:45.078Z,99722.75
2023-05-24T19:55:12.923Z,99711.31
2023-05-24T19:58:18.065Z,99714.75
2023-05-24T20:01:14.168Z,99726.84
2023-05-24T20:07:22.880Z,99723.09
2023-05-24T20:09:50.228Z,99718.22
2023-05-24T20:12:17.933Z,99723.84
2023-05-24T20:19:30.896Z,99714.94
2023-05-24T20:21:58.300Z,99714.94
2023-05-24T20:24:26.340Z,99713.81
2023-05-24T20:26:53.593Z,99714.81
2023-05-24T20:29:21.306Z,99707.97
2023-05-24T20:31:49.068Z,99711.41
2023-05-24T20:34:16.514Z,99711.88
2023-05-24T20:36:44.127Z,99719.41
2023-05-24T20:40:09.571Z,99723.16
2023-05-24T20:49:15.297Z,99717.53
2023-05-24T20:51:54.947Z,99724.78
2023-05-24T20:54:22.013Z,99715.66
2023-05-24T20:57:19.814Z,99711.25
2023-05-24T20:59:46.910Z,99715.50
2023-05-24T21:02:14.480Z,99708.25
2023-05-24T21:04:43.724Z,99709.59
2023-05-24T21:07:12.559Z,99707.44
2023-05-24T21:11:22.252Z,99711.44
2023-05-24T21:14:41.193Z,99709.69
2023-05-24T21:17:08.471Z,99702.41
2023-05-24T21:19:35.926Z,99708.63
2023-05-24T21:22:02.989Z,99718.66
2023-05-24T21:24:30.221Z,99729.19
2023-05-24T21:26:57.280Z,99725.91
2023-05-24T21:29:24.500Z,99731.91
2023-05-24T21:31:51.611Z,99732.13
2023-05-24T21:34:19.123Z,99730.47
2023-05-24T21:36:46.127Z,99734.41
2023-05-24T21:39:14.188Z,99738.91
2023-05-24T21:41:41.695Z,99736.22
2023-05-24T21:44:09.293Z,99730.84
2023-05-24T21:46:36.998Z,99741.59
2023-05-24T21:49:04.809Z,99742.41
2023-05-24T21:51:32.115Z,99742.41
2023-05-24T21:53:59.859Z,99749.75
2023-05-24T21:56:27.260Z,99741.69
2023-05-24T21:58:54.652Z,99740.88
2023-05-24T22:01:22.127Z,99741.91
2023-05-24T22:03:50.039Z,99744.59
2023-05-24T22:06:17.222Z,99751.63
2023-05-24T22:08:44.776Z,99753.50
2023-05-24T22:11:11.850Z,99758.88
2023-05-24T22:13:39.137Z,99762.63
2023-05-24T22:16:07.078Z,99769.31
2023-05-24T22:18:34.443Z,99774.97
2023-05-24T22:21:02.431Z,99765.75
2023-05-24T22:23:29.743Z,99772.09
2023-05-24T22:25:56.866Z,99773.41
2023-05-24T22:28:24.996Z,99775.88
2023-05-24T22:30:52.429Z,99779.13
2023-05-24T22:33:19.990Z,99780.75
2023-05-24T22:35:47.089Z,99775.94
2023-05-24T22:38:14.304Z,99773.25
2023-05-24T22:40:42.287Z,99773.25
2023-05-24T22:43:09.716Z,99777.56
2023-05-24T22:45:36.736Z,99782.38
2023-05-24T22:48:03.991Z,99783.22
2023-05-24T22:50:31.465Z,99786.13
2023-05-24T22:52:59.587Z,99792.34
2023-05-24T22:55:27.051Z,99786.13
2023-05-24T22:57:54.307Z,99789.91
2023-05-24T23:00:21.775Z,99788.25
2023-05-24T23:02:49.888Z,99792.81
2023-05-24T23:05:17.395Z,99792.03
2023-05-24T23:07:46.005Z,99788.16
2023-05-24T23:10:13.359Z,99792.16
2023-05-24T23:12:42.353Z,99791.84
2023-05-24T23:15:11.649Z,99798.28
2023-05-24T23:17:39.065Z,99804.72
2023-05-24T23:20:10.065Z,99798.28
2023-05-24T23:22:37.764Z,99803.56
2023-05-24T23:25:05.551Z,99805.19
2023-05-24T23:27:33.634Z,99812.19
2023-05-24T23:30:02.297Z,99814.31
2023-05-24T23:32:29.770Z,99816.78
2023-05-24T23:34:56.972Z,99814.31
2023-05-24T23:37:24.385Z,99822.19
2023-05-24T23:39:51.385Z,99808.94
2023-05-24T23:42:18.759Z,99807.31
2023-05-24T23:44:46.250Z,99809.41
2023-05-24T23:47:14.197Z,99808.63
2023-05-24T23:49:41.438Z,99805.69
2023-05-24T23:52:09.025Z,99802.41
2023-05-24T23:54:37.084Z,99804.28
2023-05-24T23:57:07.541Z,99804.53
2023-05-24T23:59:34.949Z,99808.28
